sensor_id;sensor_type;location;lat;lon;timestamp;P1;durP1;ratioP1;P2;durP2;ratioP2
77018;SDS011;66044;53.142;17.962;2023-04-24T00:00:51;11.50;;;6.80;;
77018;SDS011;66044;53.142;17.962;2023-04-24T00:03:25;10.60;;;6.30;;
77018;SDS011;66044;53.142;17.962;2023-04-24T00:05:52;12.20;;;6.70;;
77018;SDS011;66044;53.142;17.962;2023-04-24T00:08:18;12.60;;;6.70;;
77018;SDS011;66044;53.142;17.962;2023-04-24T00:10:44;11.10;;;6.40;;
77018;SDS011;66044;53.142;17.962;2023-04-24T00:13:11;11.90;;;6.80;;
77018;SDS011;66044;53.142;17.962;2023-04-24T00:15:38;14.00;;;7.90;;
77018;SDS011;66044;53.142;17.962;2023-04-24T00:18:04;11.00;;;6.70;;
77018;SDS011;66044;53.142;17.962;2023-04-24T00:20:31;13.20;;;7.70;;
77018;SDS011;66044;53.142;17.962;2023-04-24T00:23:01;12.00;;;6.80;;
77018;SDS011;66044;53.142;17.962;2023-04-24T00:25:28;11.90;;;7.30;;
77018;SDS011;66044;53.142;17.962;2023-04-24T00:27:54;12.70;;;6.60;;
77018;SDS011;66044;53.142;17.962;2023-04-24T00:30:20;13.40;;;6.60;;
77018;SDS011;66044;53.142;17.962;2023-04-24T00:32:47;10.60;;;6.60;;
77018;SDS011;66044;53.142;17.962;2023-04-24T00:35:13;12.00;;;7.40;;
77018;SDS011;66044;53.142;17.962;2023-04-24T00:37:41;11.60;;;7.10;;
77018;SDS011;66044;53.142;17.962;2023-04-24T00:40:08;12.50;;;7.50;;
77018;SDS011;66044;53.142;17.962;2023-04-24T00:42:35;13.80;;;7.80;;
77018;SDS011;66044;53.142;17.962;2023-04-24T00:45:01;15.00;;;8.10;;
77018;SDS011;66044;53.142;17.962;2023-04-24T00:47:29;12.00;;;7.60;;
77018;SDS011;66044;53.142;17.962;2023-04-24T00:49:56;11.90;;;7.30;;
77018;SDS011;66044;53.142;17.962;2023-04-24T00:52:22;12.30;;;7.30;;
77018;SDS011;66044;53.142;17.962;2023-04-24T00:54:50;12.30;;;7.30;;
77018;SDS011;66044;53.142;17.962;2023-04-24T00:57:16;11.00;;;7.00;;
77018;SDS011;66044;53.142;17.962;2023-04-24T00:59:43;12.50;;;7.50;;
77018;SDS011;66044;53.142;17.962;2023-04-24T01:02:10;12.30;;;7.90;;
77018;SDS011;66044;53.142;17.962;2023-04-24T01:04:38;13.50;;;8.90;;
77018;SDS011;66044;53.142;17.962;2023-04-24T01:07:05;16.90;;;8.70;;
77018;SDS011;66044;53.142;17.962;2023-04-24T01:09:37;13.00;;;8.30;;
77018;SDS011;66044;53.142;17.962;2023-04-24T01:12:07;14.10;;;8.40;;
77018;SDS011;66044;53.142;17.962;2023-04-24T01:14:33;12.50;;;8.10;;
77018;SDS011;66044;53.142;17.962;2023-04-24T01:17:00;14.20;;;8.40;;
77018;SDS011;66044;53.142;17.962;2023-04-24T01:19:27;13.40;;;7.90;;
77018;SDS011;66044;53.142;17.962;2023-04-24T01:21:54;13.60;;;7.90;;
77018;SDS011;66044;53.142;17.962;2023-04-24T01:24:25;14.50;;;8.90;;
77018;SDS011;66044;53.142;17.962;2023-04-24T01:26:52;12.50;;;8.50;;
77018;SDS011;66044;53.142;17.962;2023-04-24T01:29:18;12.60;;;7.80;;
77018;SDS011;66044;53.142;17.962;2023-04-24T01:31:45;12.80;;;7.70;;
77018;SDS011;66044;53.142;17.962;2023-04-24T01:34:12;11.90;;;8.20;;
77018;SDS011;66044;53.142;17.962;2023-04-24T01:36:38;13.20;;;7.60;;
77018;SDS011;66044;53.142;17.962;2023-04-24T01:39:05;12.80;;;7.80;;
77018;SDS011;66044;53.142;17.962;2023-04-24T01:41:32;14.10;;;8.10;;
77018;SDS011;66044;53.142;17.962;2023-04-24T01:43:59;12.60;;;7.90;;
77018;SDS011;66044;53.142;17.962;2023-04-24T01:46:25;13.30;;;8.10;;
77018;SDS011;66044;53.142;17.962;2023-04-24T01:48:52;14.60;;;8.60;;
77018;SDS011;66044;53.142;17.962;2023-04-24T01:51:19;13.00;;;8.10;;
77018;SDS011;66044;53.142;17.962;2023-04-24T01:53:45;13.90;;;8.30;;
77018;SDS011;66044;53.142;17.962;2023-04-24T01:56:12;13.10;;;7.60;;
77018;SDS011;66044;53.142;17.962;2023-04-24T01:58:38;14.60;;;8.80;;
77018;SDS011;66044;53.142;17.962;2023-04-24T02:01:06;11.90;;;7.40;;
77018;SDS011;66044;53.142;17.962;2023-04-24T02:03:32;12.20;;;7.30;;
77018;SDS011;66044;53.142;17.962;2023-04-24T02:05:59;11.90;;;7.20;;
77018;SDS011;66044;53.142;17.962;2023-04-24T02:08:25;13.40;;;7.50;;
77018;SDS011;66044;53.142;17.962;2023-04-24T02:10:52;11.30;;;7.10;;
77018;SDS011;66044;53.142;17.962;2023-04-24T02:13:18;11.60;;;7.40;;
77018;SDS011;66044;53.142;17.962;2023-04-24T02:15:45;13.90;;;8.20;;
77018;SDS011;66044;53.142;17.962;2023-04-24T02:18:11;12.80;;;7.20;;
77018;SDS011;66044;53.142;17.962;2023-04-24T02:20:38;13.90;;;8.30;;
77018;SDS011;66044;53.142;17.962;2023-04-24T02:23:05;12.90;;;7.70;;
77018;SDS011;66044;53.142;17.962;2023-04-24T02:25:32;12.20;;;7.90;;
77018;SDS011;66044;53.142;17.962;2023-04-24T02:27:59;11.70;;;7.60;;
77018;SDS011;66044;53.142;17.962;2023-04-24T02:30:26;12.40;;;7.70;;
77018;SDS011;66044;53.142;17.962;2023-04-24T02:32:52;12.40;;;7.80;;
77018;SDS011;66044;53.142;17.962;2023-04-24T02:35:18;14.20;;;7.70;;
77018;SDS011;66044;53.142;17.962;2023-04-24T02:37:45;14.50;;;8.10;;
77018;SDS011;66044;53.142;17.962;2023-04-24T02:40:11;12.10;;;7.70;;
77018;SDS011;66044;53.142;17.962;2023-04-24T02:42:38;12.20;;;7.60;;
77018;SDS011;66044;53.142;17.962;2023-04-24T02:45:05;12.70;;;7.80;;
77018;SDS011;66044;53.142;17.962;2023-04-24T02:47:31;12.10;;;8.50;;
77018;SDS011;66044;53.142;17.962;2023-04-24T02:49:58;11.90;;;7.90;;
77018;SDS011;66044;53.142;17.962;2023-04-24T02:52:24;12.10;;;7.80;;
77018;SDS011;66044;53.142;17.962;2023-04-24T02:54:51;14.80;;;8.00;;
77018;SDS011;66044;53.142;17.962;2023-04-24T02:57:17;13.70;;;7.60;;
77018;SDS011;66044;53.142;17.962;2023-04-24T02:59:43;11.10;;;7.40;;
77018;SDS011;66044;53.142;17.962;2023-04-24T03:02:10;12.40;;;7.90;;
77018;SDS011;66044;53.142;17.962;2023-04-24T03:04:36;12.30;;;7.80;;
77018;SDS011;66044;53.142;17.962;2023-04-24T03:07:03;11.90;;;7.40;;
77018;SDS011;66044;53.142;17.962;2023-04-24T03:09:30;12.60;;;7.50;;
77018;SDS011;66044;53.142;17.962;2023-04-24T03:11:57;13.20;;;7.70;;
77018;SDS011;66044;53.142;17.962;2023-04-24T03:14:24;14.00;;;7.40;;
77018;SDS011;66044;53.142;17.962;2023-04-24T03:16:51;13.90;;;8.10;;
77018;SDS011;66044;53.142;17.962;2023-04-24T03:19:17;13.70;;;8.60;;
77018;SDS011;66044;53.142;17.962;2023-04-24T03:21:43;12.30;;;7.90;;
77018;SDS011;66044;53.142;17.962;2023-04-24T03:24:10;16.60;;;9.60;;
77018;SDS011;66044;53.142;17.962;2023-04-24T03:26:36;18.40;;;10.30;;
77018;SDS011;66044;53.142;17.962;2023-04-24T03:29:03;18.60;;;10.60;;
77018;SDS011;66044;53.142;17.962;2023-04-24T03:31:29;18.40;;;9.60;;
77018;SDS011;66044;53.142;17.962;2023-04-24T03:33:56;13.90;;;9.10;;
77018;SDS011;66044;53.142;17.962;2023-04-24T03:36:22;14.10;;;9.00;;
77018;SDS011;66044;53.142;17.962;2023-04-24T03:38:48;13.80;;;8.70;;
77018;SDS011;66044;53.142;17.962;2023-04-24T03:41:15;14.80;;;8.40;;
77018;SDS011;66044;53.142;17.962;2023-04-24T03:43:41;13.10;;;8.20;;
77018;SDS011;66044;53.142;17.962;2023-04-24T03:46:08;14.30;;;8.80;;
77018;SDS011;66044;53.142;17.962;2023-04-24T03:48:35;12.40;;;7.90;;
77018;SDS011;66044;53.142;17.962;2023-04-24T03:51:02;13.30;;;7.30;;
77018;SDS011;66044;53.142;17.962;2023-04-24T03:53:28;13.20;;;7.70;;
77018;SDS011;66044;53.142;17.962;2023-04-24T03:55:55;14.60;;;8.70;;
77018;SDS011;66044;53.142;17.962;2023-04-24T03:58:21;13.30;;;7.80;;
77018;SDS011;66044;53.142;17.962;2023-04-24T04:00:48;11.70;;;7.40;;
77018;SDS011;66044;53.142;17.962;2023-04-24T04:03:15;12.20;;;7.00;;
77018;SDS011;66044;53.142;17.962;2023-04-24T04:05:42;12.70;;;7.20;;
77018;SDS011;66044;53.142;17.962;2023-04-24T04:08:08;14.10;;;8.30;;
77018;SDS011;66044;53.142;17.962;2023-04-24T04:10:35;14.00;;;8.10;;
77018;SDS011;66044;53.142;17.962;2023-04-24T04:13:01;13.60;;;8.80;;
77018;SDS011;66044;53.142;17.962;2023-04-24T04:15:27;14.90;;;8.10;;
77018;SDS011;66044;53.142;17.962;2023-04-24T04:17:54;14.10;;;7.80;;
77018;SDS011;66044;53.142;17.962;2023-04-24T04:20:21;13.70;;;7.80;;
77018;SDS011;66044;53.142;17.962;2023-04-24T04:22:47;14.10;;;8.20;;
77018;SDS011;66044;53.142;17.962;2023-04-24T04:25:13;16.30;;;8.60;;
77018;SDS011;66044;53.142;17.962;2023-04-24T04:27:40;12.90;;;7.50;;
77018;SDS011;66044;53.142;17.962;2023-04-24T04:30:08;17.00;;;8.80;;
77018;SDS011;66044;53.142;17.962;2023-04-24T04:32:35;14.00;;;9.70;;
77018;SDS011;66044;53.142;17.962;2023-04-24T04:35:02;16.30;;;9.40;;
77018;SDS011;66044;53.142;17.962;2023-04-24T04:37:32;12.80;;;8.20;;
77018;SDS011;66044;53.142;17.962;2023-04-24T04:39:59;16.10;;;9.50;;
77018;SDS011;66044;53.142;17.962;2023-04-24T04:42:26;15.10;;;9.00;;
77018;SDS011;66044;53.142;17.962;2023-04-24T04:44:53;13.90;;;8.90;;
77018;SDS011;66044;53.142;17.962;2023-04-24T04:47:20;14.80;;;9.00;;
77018;SDS011;66044;53.142;17.962;2023-04-24T04:49:50;14.50;;;9.70;;
77018;SDS011;66044;53.142;17.962;2023-04-24T04:52:18;17.40;;;10.00;;
77018;SDS011;66044;53.142;17.962;2023-04-24T04:54:44;14.90;;;10.10;;
77018;SDS011;66044;53.142;17.962;2023-04-24T04:57:12;17.00;;;10.60;;
77018;SDS011;66044;53.142;17.962;2023-04-24T04:59:39;18.60;;;10.00;;
77018;SDS011;66044;53.142;17.962;2023-04-24T05:02:07;16.30;;;9.70;;
77018;SDS011;66044;53.142;17.962;2023-04-24T05:04:33;15.20;;;9.70;;
77018;SDS011;66044;53.142;17.962;2023-04-24T05:07:00;17.30;;;10.10;;
77018;SDS011;66044;53.142;17.962;2023-04-24T05:09:26;17.70;;;9.70;;
77018;SDS011;66044;53.142;17.962;2023-04-24T05:11:55;20.40;;;14.60;;
77018;SDS011;66044;53.142;17.962;2023-04-24T05:14:22;21.80;;;14.40;;
77018;SDS011;66044;53.142;17.962;2023-04-24T05:16:48;19.40;;;11.60;;
77018;SDS011;66044;53.142;17.962;2023-04-24T05:19:15;17.90;;;11.50;;
77018;SDS011;66044;53.142;17.962;2023-04-24T05:21:41;17.30;;;10.20;;
77018;SDS011;66044;53.142;17.962;2023-04-24T05:24:07;14.30;;;9.00;;
77018;SDS011;66044;53.142;17.962;2023-04-24T05:26:34;17.80;;;10.30;;
77018;SDS011;66044;53.142;17.962;2023-04-24T05:29:02;12.70;;;9.00;;
77018;SDS011;66044;53.142;17.962;2023-04-24T05:31:28;13.00;;;7.50;;
77018;SDS011;66044;53.142;17.962;2023-04-24T05:33:55;13.50;;;8.90;;
77018;SDS011;66044;53.142;17.962;2023-04-24T05:36:21;14.10;;;9.10;;
77018;SDS011;66044;53.142;17.962;2023-04-24T05:38:48;14.60;;;9.00;;
77018;SDS011;66044;53.142;17.962;2023-04-24T05:41:14;13.50;;;9.10;;
77018;SDS011;66044;53.142;17.962;2023-04-24T05:43:41;12.40;;;8.00;;
77018;SDS011;66044;53.142;17.962;2023-04-24T05:46:07;14.10;;;9.40;;
77018;SDS011;66044;53.142;17.962;2023-04-24T05:48:34;13.80;;;8.90;;
77018;SDS011;66044;53.142;17.962;2023-04-24T05:51:00;15.30;;;10.00;;
77018;SDS011;66044;53.142;17.962;2023-04-24T05:53:27;14.70;;;9.10;;
77018;SDS011;66044;53.142;17.962;2023-04-24T05:55:53;15.10;;;9.70;;
77018;SDS011;66044;53.142;17.962;2023-04-24T05:58:20;15.40;;;9.70;;
77018;SDS011;66044;53.142;17.962;2023-04-24T06:00:46;14.80;;;9.20;;
77018;SDS011;66044;53.142;17.962;2023-04-24T06:03:13;14.50;;;9.10;;
77018;SDS011;66044;53.142;17.962;2023-04-24T06:05:39;13.20;;;9.00;;
77018;SDS011;66044;53.142;17.962;2023-04-24T06:08:06;13.90;;;8.60;;
77018;SDS011;66044;53.142;17.962;2023-04-24T06:10:32;15.10;;;9.50;;
77018;SDS011;66044;53.142;17.962;2023-04-24T06:12:59;18.10;;;10.10;;
77018;SDS011;66044;53.142;17.962;2023-04-24T06:15:29;16.60;;;10.40;;
77018;SDS011;66044;53.142;17.962;2023-04-24T06:17:59;15.20;;;10.00;;
77018;SDS011;66044;53.142;17.962;2023-04-24T06:20:25;14.00;;;8.80;;
77018;SDS011;66044;53.142;17.962;2023-04-24T06:22:52;15.90;;;9.50;;
77018;SDS011;66044;53.142;17.962;2023-04-24T06:25:18;17.30;;;10.70;;
77018;SDS011;66044;53.142;17.962;2023-04-24T06:27:45;16.20;;;9.50;;
77018;SDS011;66044;53.142;17.962;2023-04-24T06:30:12;11.30;;;7.60;;
77018;SDS011;66044;53.142;17.962;2023-04-24T06:32:39;12.80;;;8.50;;
77018;SDS011;66044;53.142;17.962;2023-04-24T06:35:06;12.00;;;7.90;;
77018;SDS011;66044;53.142;17.962;2023-04-24T06:37:34;12.60;;;8.20;;
77018;SDS011;66044;53.142;17.962;2023-04-24T06:40:00;12.60;;;7.90;;
77018;SDS011;66044;53.142;17.962;2023-04-24T06:42:27;14.50;;;8.30;;
77018;SDS011;66044;53.142;17.962;2023-04-24T06:44:53;12.60;;;7.00;;
77018;SDS011;66044;53.142;17.962;2023-04-24T06:47:20;13.10;;;8.20;;
77018;SDS011;66044;53.142;17.962;2023-04-24T06:49:46;14.90;;;8.30;;
77018;SDS011;66044;53.142;17.962;2023-04-24T06:52:13;11.60;;;7.20;;
77018;SDS011;66044;53.142;17.962;2023-04-24T06:54:41;12.90;;;8.10;;
77018;SDS011;66044;53.142;17.962;2023-04-24T06:57:08;13.40;;;7.20;;
77018;SDS011;66044;53.142;17.962;2023-04-24T06:59:35;14.80;;;8.40;;
77018;SDS011;66044;53.142;17.962;2023-04-24T07:02:01;14.40;;;7.60;;
77018;SDS011;66044;53.142;17.962;2023-04-24T07:04:29;13.00;;;7.90;;
77018;SDS011;66044;53.142;17.962;2023-04-24T07:06:56;13.20;;;7.60;;
77018;SDS011;66044;53.142;17.962;2023-04-24T07:09:24;14.40;;;7.20;;
77018;SDS011;66044;53.142;17.962;2023-04-24T07:11:51;13.00;;;7.30;;
77018;SDS011;66044;53.142;17.962;2023-04-24T07:14:19;13.40;;;7.40;;
77018;SDS011;66044;53.142;17.962;2023-04-24T07:16:46;14.90;;;8.00;;
77018;SDS011;66044;53.142;17.962;2023-04-24T07:19:13;11.20;;;7.00;;
77018;SDS011;66044;53.142;17.962;2023-04-24T07:21:40;13.60;;;7.10;;
77018;SDS011;66044;53.142;17.962;2023-04-24T07:24:06;11.60;;;6.40;;
77018;SDS011;66044;53.142;17.962;2023-04-24T07:26:36;12.50;;;7.00;;
77018;SDS011;66044;53.142;17.962;2023-04-24T07:29:04;12.90;;;7.50;;
77018;SDS011;66044;53.142;17.962;2023-04-24T07:31:30;11.40;;;6.40;;
77018;SDS011;66044;53.142;17.962;2023-04-24T07:33:57;9.90;;;6.10;;
77018;SDS011;66044;53.142;17.962;2023-04-24T07:36:24;10.80;;;6.40;;
77018;SDS011;66044;53.142;17.962;2023-04-24T07:38:52;10.40;;;5.80;;
77018;SDS011;66044;53.142;17.962;2023-04-24T07:41:19;13.90;;;7.20;;
77018;SDS011;66044;53.142;17.962;2023-04-24T07:43:46;10.10;;;6.40;;
77018;SDS011;66044;53.142;17.962;2023-04-24T07:46:13;11.40;;;5.90;;
77018;SDS011;66044;53.142;17.962;2023-04-24T07:48:39;11.20;;;6.80;;
77018;SDS011;66044;53.142;17.962;2023-04-24T07:51:06;11.60;;;6.30;;
77018;SDS011;66044;53.142;17.962;2023-04-24T07:53:32;11.90;;;6.00;;
77018;SDS011;66044;53.142;17.962;2023-04-24T07:55:59;11.00;;;5.80;;
77018;SDS011;66044;53.142;17.962;2023-04-24T07:58:25;10.50;;;6.00;;
77018;SDS011;66044;53.142;17.962;2023-04-24T08:00:52;9.30;;;5.90;;
77018;SDS011;66044;53.142;17.962;2023-04-24T08:03:18;12.90;;;5.70;;
77018;SDS011;66044;53.142;17.962;2023-04-24T08:05:45;10.60;;;5.80;;
77018;SDS011;66044;53.142;17.962;2023-04-24T08:08:12;12.60;;;5.80;;
77018;SDS011;66044;53.142;17.962;2023-04-24T08:10:39;9.90;;;5.80;;
77018;SDS011;66044;53.142;17.962;2023-04-24T08:13:05;10.80;;;5.50;;
77018;SDS011;66044;53.142;17.962;2023-04-24T08:15:32;9.10;;;5.30;;
77018;SDS011;66044;53.142;17.962;2023-04-24T08:17:58;9.50;;;5.30;;
77018;SDS011;66044;53.142;17.962;2023-04-24T08:20:25;11.70;;;6.20;;
77018;SDS011;66044;53.142;17.962;2023-04-24T08:22:51;11.70;;;5.40;;
77018;SDS011;66044;53.142;17.962;2023-04-24T08:25:18;9.30;;;4.90;;
77018;SDS011;66044;53.142;17.962;2023-04-24T08:27:45;10.70;;;5.40;;
77018;SDS011;66044;53.142;17.962;2023-04-24T08:30:11;8.80;;;5.20;;
77018;SDS011;66044;53.142;17.962;2023-04-24T08:32:38;9.10;;;4.60;;
77018;SDS011;66044;53.142;17.962;2023-04-24T08:35:04;8.10;;;4.10;;
77018;SDS011;66044;53.142;17.962;2023-04-24T08:37:31;9.00;;;4.20;;
77018;SDS011;66044;53.142;17.962;2023-04-24T08:39:58;8.70;;;4.10;;
77018;SDS011;66044;53.142;17.962;2023-04-24T08:42:25;9.10;;;4.70;;
77018;SDS011;66044;53.142;17.962;2023-04-24T08:44:54;9.60;;;4.50;;
77018;SDS011;66044;53.142;17.962;2023-04-24T08:47:21;8.20;;;4.10;;
77018;SDS011;66044;53.142;17.962;2023-04-24T08:49:49;7.50;;;4.10;;
77018;SDS011;66044;53.142;17.962;2023-04-24T08:52:16;8.70;;;4.90;;
77018;SDS011;66044;53.142;17.962;2023-04-24T08:54:45;8.50;;;4.50;;
77018;SDS011;66044;53.142;17.962;2023-04-24T08:57:12;9.00;;;4.80;;
77018;SDS011;66044;53.142;17.962;2023-04-24T08:59:40;8.60;;;4.30;;
77018;SDS011;66044;53.142;17.962;2023-04-24T09:02:10;11.70;;;4.80;;
77018;SDS011;66044;53.142;17.962;2023-04-24T09:04:37;7.30;;;4.30;;
77018;SDS011;66044;53.142;17.962;2023-04-24T09:07:04;8.90;;;4.90;;
77018;SDS011;66044;53.142;17.962;2023-04-24T09:09:32;9.30;;;4.80;;
77018;SDS011;66044;53.142;17.962;2023-04-24T09:11:59;10.00;;;4.90;;
77018;SDS011;66044;53.142;17.962;2023-04-24T09:14:26;8.20;;;4.60;;
77018;SDS011;66044;53.142;17.962;2023-04-24T09:16:54;8.30;;;4.60;;
77018;SDS011;66044;53.142;17.962;2023-04-24T09:19:20;11.00;;;4.80;;
77018;SDS011;66044;53.142;17.962;2023-04-24T09:21:48;8.10;;;4.30;;
77018;SDS011;66044;53.142;17.962;2023-04-24T09:24:18;9.30;;;4.90;;
77018;SDS011;66044;53.142;17.962;2023-04-24T09:26:49;7.60;;;4.30;;
77018;SDS011;66044;53.142;17.962;2023-04-24T09:29:23;10.00;;;4.60;;
77018;SDS011;66044;53.142;17.962;2023-04-24T09:31:49;8.10;;;4.40;;
77018;SDS011;66044;53.142;17.962;2023-04-24T09:34:21;9.00;;;4.90;;
77018;SDS011;66044;53.142;17.962;2023-04-24T09:36:49;7.70;;;4.30;;
77018;SDS011;66044;53.142;17.962;2023-04-24T09:39:16;11.50;;;5.60;;
77018;SDS011;66044;53.142;17.962;2023-04-24T09:41:52;11.80;;;5.00;;
77018;SDS011;66044;53.142;17.962;2023-04-24T09:44:24;8.60;;;4.30;;
77018;SDS011;66044;53.142;17.962;2023-04-24T09:46:56;9.40;;;5.10;;
77018;SDS011;66044;53.142;17.962;2023-04-24T09:49:26;8.90;;;4.60;;
77018;SDS011;66044;53.142;17.962;2023-04-24T09:52:04;8.70;;;4.60;;
77018;SDS011;66044;53.142;17.962;2023-04-24T09:54:31;9.30;;;4.70;;
77018;SDS011;66044;53.142;17.962;2023-04-24T09:56:59;7.70;;;4.40;;
77018;SDS011;66044;53.142;17.962;2023-04-24T09:59:28;9.10;;;4.60;;
77018;SDS011;66044;53.142;17.962;2023-04-24T10:01:55;8.30;;;4.50;;
77018;SDS011;66044;53.142;17.962;2023-04-24T10:04:27;10.00;;;4.80;;
77018;SDS011;66044;53.142;17.962;2023-04-24T10:06:55;9.90;;;4.70;;
77018;SDS011;66044;53.142;17.962;2023-04-24T10:09:24;8.60;;;4.80;;
77018;SDS011;66044;53.142;17.962;2023-04-24T10:11:52;8.10;;;4.60;;
77018;SDS011;66044;53.142;17.962;2023-04-24T10:14:21;7.80;;;4.10;;
77018;SDS011;66044;53.142;17.962;2023-04-24T10:16:49;8.90;;;3.80;;
77018;SDS011;66044;53.142;17.962;2023-04-24T10:19:16;9.60;;;5.20;;
77018;SDS011;66044;53.142;17.962;2023-04-24T10:21:46;12.60;;;5.60;;
77018;SDS011;66044;53.142;17.962;2023-04-24T10:24:13;9.00;;;4.50;;
77018;SDS011;66044;53.142;17.962;2023-04-24T10:26:42;10.30;;;5.00;;
77018;SDS011;66044;53.142;17.962;2023-04-24T10:29:10;10.10;;;4.70;;
77018;SDS011;66044;53.142;17.962;2023-04-24T10:31:38;9.10;;;4.70;;
77018;SDS011;66044;53.142;17.962;2023-04-24T10:34:06;10.10;;;5.20;;
77018;SDS011;66044;53.142;17.962;2023-04-24T10:36:34;8.40;;;4.70;;
77018;SDS011;66044;53.142;17.962;2023-04-24T10:39:03;8.20;;;4.70;;
77018;SDS011;66044;53.142;17.962;2023-04-24T10:41:36;9.20;;;4.50;;
77018;SDS011;66044;53.142;17.962;2023-04-24T10:44:13;8.10;;;4.60;;
77018;SDS011;66044;53.142;17.962;2023-04-24T10:46:44;8.40;;;4.40;;
77018;SDS011;66044;53.142;17.962;2023-04-24T10:49:13;8.80;;;4.60;;
77018;SDS011;66044;53.142;17.962;2023-04-24T10:52:22;9.80;;;4.60;;
77018;SDS011;66044;53.142;17.962;2023-04-24T10:57:25;7.80;;;4.80;;
77018;SDS011;66044;53.142;17.962;2023-04-24T11:00:12;10.10;;;5.30;;
77018;SDS011;66044;53.142;17.962;2023-04-24T11:02:41;8.60;;;5.00;;
77018;SDS011;66044;53.142;17.962;2023-04-24T11:05:16;7.50;;;4.30;;
77018;SDS011;66044;53.142;17.962;2023-04-24T11:10:37;8.20;;;3.90;;
77018;SDS011;66044;53.142;17.962;2023-04-24T11:13:05;8.40;;;4.30;;
77018;SDS011;66044;53.142;17.962;2023-04-24T11:15:31;8.70;;;4.60;;
77018;SDS011;66044;53.142;17.962;2023-04-24T11:17:57;9.90;;;5.00;;
77018;SDS011;66044;53.142;17.962;2023-04-24T11:20:25;8.70;;;5.20;;
77018;SDS011;66044;53.142;17.962;2023-04-24T11:22:53;9.50;;;4.10;;
77018;SDS011;66044;53.142;17.962;2023-04-24T11:25:23;9.40;;;5.10;;
77018;SDS011;66044;53.142;17.962;2023-04-24T11:27:51;11.20;;;4.70;;
77018;SDS011;66044;53.142;17.962;2023-04-24T11:30:29;10.70;;;6.70;;
77018;SDS011;66044;53.142;17.962;2023-04-24T11:33:01;11.10;;;6.20;;
77018;SDS011;66044;53.142;17.962;2023-04-24T11:35:29;9.20;;;6.20;;
77018;SDS011;66044;53.142;17.962;2023-04-24T11:37:59;10.20;;;6.20;;
77018;SDS011;66044;53.142;17.962;2023-04-24T11:40:29;9.30;;;4.20;;
77018;SDS011;66044;53.142;17.962;2023-04-24T11:42:55;9.40;;;4.40;;
77018;SDS011;66044;53.142;17.962;2023-04-24T11:45:25;8.70;;;4.40;;
77018;SDS011;66044;53.142;17.962;2023-04-24T11:47:54;8.70;;;4.30;;
77018;SDS011;66044;53.142;17.962;2023-04-24T11:50:22;7.60;;;4.00;;
77018;SDS011;66044;53.142;17.962;2023-04-24T11:52:49;7.80;;;4.20;;
77018;SDS011;66044;53.142;17.962;2023-04-24T11:57:43;9.40;;;5.70;;
77018;SDS011;66044;53.142;17.962;2023-04-24T12:00:17;8.40;;;4.30;;
77018;SDS011;66044;53.142;17.962;2023-04-24T12:02:46;8.90;;;5.10;;
77018;SDS011;66044;53.142;17.962;2023-04-24T12:05:23;8.50;;;4.30;;
77018;SDS011;66044;53.142;17.962;2023-04-24T12:07:52;7.90;;;4.30;;
77018;SDS011;66044;53.142;17.962;2023-04-24T12:10:22;9.00;;;4.70;;
77018;SDS011;66044;53.142;17.962;2023-04-24T12:12:51;8.30;;;4.10;;
77018;SDS011;66044;53.142;17.962;2023-04-24T12:15:19;9.20;;;4.70;;
77018;SDS011;66044;53.142;17.962;2023-04-24T12:17:46;7.30;;;4.00;;
77018;SDS011;66044;53.142;17.962;2023-04-24T12:20:14;8.90;;;4.50;;
77018;SDS011;66044;53.142;17.962;2023-04-24T12:22:48;8.10;;;4.50;;
77018;SDS011;66044;53.142;17.962;2023-04-24T12:25:21;8.10;;;4.30;;
77018;SDS011;66044;53.142;17.962;2023-04-24T12:27:55;7.30;;;3.90;;
77018;SDS011;66044;53.142;17.962;2023-04-24T12:30:41;7.50;;;4.40;;
77018;SDS011;66044;53.142;17.962;2023-04-24T12:33:12;7.30;;;3.70;;
77018;SDS011;66044;53.142;17.962;2023-04-24T12:35:39;7.90;;;4.00;;
77018;SDS011;66044;53.142;17.962;2023-04-24T12:38:07;9.90;;;4.30;;
77018;SDS011;66044;53.142;17.962;2023-04-24T12:40:48;7.60;;;3.90;;
77018;SDS011;66044;53.142;17.962;2023-04-24T12:43:27;9.20;;;5.00;;
77018;SDS011;66044;53.142;17.962;2023-04-24T12:45:53;8.80;;;4.80;;
77018;SDS011;66044;53.142;17.962;2023-04-24T12:48:19;9.30;;;4.90;;
77018;SDS011;66044;53.142;17.962;2023-04-24T12:50:47;8.60;;;5.20;;
77018;SDS011;66044;53.142;17.962;2023-04-24T12:53:13;10.90;;;5.80;;
77018;SDS011;66044;53.142;17.962;2023-04-24T12:55:41;9.10;;;5.70;;
77018;SDS011;66044;53.142;17.962;2023-04-24T12:58:07;11.60;;;5.90;;
77018;SDS011;66044;53.142;17.962;2023-04-24T13:00:34;8.70;;;5.50;;
77018;SDS011;66044;53.142;17.962;2023-04-24T13:03:00;9.50;;;5.30;;
77018;SDS011;66044;53.142;17.962;2023-04-24T13:05:27;9.90;;;4.90;;
77018;SDS011;66044;53.142;17.962;2023-04-24T13:07:54;8.40;;;4.60;;
77018;SDS011;66044;53.142;17.962;2023-04-24T13:10:20;8.50;;;4.70;;
77018;SDS011;66044;53.142;17.962;2023-04-24T13:12:47;7.50;;;4.00;;
77018;SDS011;66044;53.142;17.962;2023-04-24T13:15:13;8.10;;;4.50;;
77018;SDS011;66044;53.142;17.962;2023-04-24T13:17:40;10.50;;;5.20;;
77018;SDS011;66044;53.142;17.962;2023-04-24T13:20:06;7.50;;;3.80;;
77018;SDS011;66044;53.142;17.962;2023-04-24T13:22:33;7.90;;;4.70;;
77018;SDS011;66044;53.142;17.962;2023-04-24T13:24:59;9.90;;;4.70;;
77018;SDS011;66044;53.142;17.962;2023-04-24T13:27:27;8.40;;;4.60;;
77018;SDS011;66044;53.142;17.962;2023-04-24T13:29:53;8.60;;;4.20;;
77018;SDS011;66044;53.142;17.962;2023-04-24T13:32:20;9.30;;;4.40;;
77018;SDS011;66044;53.142;17.962;2023-04-24T13:34:46;8.50;;;4.40;;
77018;SDS011;66044;53.142;17.962;2023-04-24T13:37:13;7.90;;;4.40;;
77018;SDS011;66044;53.142;17.962;2023-04-24T13:39:39;8.00;;;3.80;;
77018;SDS011;66044;53.142;17.962;2023-04-24T13:42:07;9.70;;;5.30;;
77018;SDS011;66044;53.142;17.962;2023-04-24T13:44:34;8.50;;;4.50;;
77018;SDS011;66044;53.142;17.962;2023-04-24T13:47:01;7.60;;;3.50;;
77018;SDS011;66044;53.142;17.962;2023-04-24T13:49:27;6.50;;;2.60;;
77018;SDS011;66044;53.142;17.962;2023-04-24T13:51:54;7.60;;;3.40;;
77018;SDS011;66044;53.142;17.962;2023-04-24T13:54:22;6.20;;;3.20;;
77018;SDS011;66044;53.142;17.962;2023-04-24T13:56:50;7.00;;;3.70;;
77018;SDS011;66044;53.142;17.962;2023-04-24T13:59:17;7.40;;;4.10;;
77018;SDS011;66044;53.142;17.962;2023-04-24T14:01:44;8.00;;;4.30;;
77018;SDS011;66044;53.142;17.962;2023-04-24T14:04:11;7.80;;;4.00;;
77018;SDS011;66044;53.142;17.962;2023-04-24T14:06:38;9.80;;;5.10;;
77018;SDS011;66044;53.142;17.962;2023-04-24T14:09:04;8.20;;;4.50;;
77018;SDS011;66044;53.142;17.962;2023-04-24T14:11:33;8.90;;;5.00;;
77018;SDS011;66044;53.142;17.962;2023-04-24T14:14:00;8.40;;;4.50;;
77018;SDS011;66044;53.142;17.962;2023-04-24T14:16:27;7.50;;;4.20;;
77018;SDS011;66044;53.142;17.962;2023-04-24T14:18:54;8.90;;;5.00;;
77018;SDS011;66044;53.142;17.962;2023-04-24T14:21:20;8.10;;;4.20;;
77018;SDS011;66044;53.142;17.962;2023-04-24T14:23:47;7.50;;;4.10;;
77018;SDS011;66044;53.142;17.962;2023-04-24T14:26:13;8.00;;;4.40;;
77018;SDS011;66044;53.142;17.962;2023-04-24T14:28:40;8.40;;;4.00;;
77018;SDS011;66044;53.142;17.962;2023-04-24T14:31:06;7.10;;;4.00;;
77018;SDS011;66044;53.142;17.962;2023-04-24T14:33:34;6.60;;;2.90;;
77018;SDS011;66044;53.142;17.962;2023-04-24T14:36:00;5.70;;;2.70;;